FLUGWETTER MÜNCHEN AIRPORT

[source: ADDS]
METAR
EDDM 091450Z 17003KT 120V210 9999 FEW022 BKN040 06/M00 Q1031 NOSIG =
TAF
TAF EDDM 091100Z 0912/1018 24005KT CAVOK BECMG 0915/0917 VRB03KT BECMG 1009/1011 23005KT =
SR / SS: 06:53 / 15:20 UTC (Tag 2016-12-09)

QR-Code dieser Seite

QR-Code dieser Seite